createdAt,value
2018-04-30T00:00:30.516Z,77.67
2018-04-30T00:01:30.449Z,76.42
2018-04-30T00:02:30.364Z,75.37
2018-04-30T00:03:30.301Z,74.99
2018-04-30T00:04:30.220Z,74.71
2018-04-30T00:05:30.152Z,75.09
2018-04-30T00:06:30.071Z,75.37
2018-04-30T00:07:30.011Z,75.28
2018-04-30T00:08:29.920Z,76.42
2018-04-30T00:09:29.859Z,78.14
2018-04-30T00:10:29.772Z,79.19
2018-04-30T00:11:29.707Z,79.19
2018-04-30T00:12:29.627Z,77.28
2018-04-30T00:13:29.558Z,76.81
2018-04-30T00:14:29.478Z,77.67
2018-04-30T00:15:29.410Z,77.19
2018-04-30T00:16:29.328Z,76.81
2018-04-30T00:17:29.257Z,77.57
2018-04-30T00:18:29.187Z,78.52
2018-04-30T00:19:29.124Z,77.67
2018-04-30T00:20:29.031Z,76.81
2018-04-30T00:21:28.967Z,77.86
2018-04-30T00:22:28.881Z,78.43
2018-04-30T00:23:28.815Z,78.62
2018-04-30T00:24:28.730Z,79.91
2018-04-30T00:25:28.671Z,81.01
2018-04-30T00:26:28.585Z,81.82
2018-04-30T00:27:28.527Z,82.40
2018-04-30T00:28:28.437Z,82.40
2018-04-30T00:29:28.436Z,83.83
2018-04-30T00:30:28.287Z,84.01
2018-04-30T00:31:28.224Z,84.06
2018-04-30T00:32:28.136Z,84.34
2018-04-30T00:33:28.072Z,84.44
2018-04-30T00:34:27.989Z,84.06
2018-04-30T00:35:27.928Z,83.77
2018-04-30T00:36:27.842Z,83.29
2018-04-30T00:37:27.775Z,84.06
2018-04-30T00:38:27.694Z,83.48
2018-04-30T00:39:27.622Z,83.11
2018-04-30T00:40:27.544Z,83.77
2018-04-30T00:41:27.475Z,83.39
2018-04-30T00:42:27.394Z,83.01
2018-04-30T00:43:27.326Z,82.91
2018-04-30T00:44:27.246Z,82.63
2018-04-30T00:45:27.179Z,82.53
2018-04-30T00:46:27.098Z,81.86
2018-04-30T00:47:27.032Z,81.29
2018-04-30T00:48:26.951Z,82.29
2018-04-30T00:49:26.878Z,81.71
2018-04-30T00:50:26.799Z,82.38
2018-04-30T00:51:26.731Z,81.52
2018-04-30T00:52:26.650Z,81.86
2018-04-30T00:53:26.584Z,82.43
2018-04-30T00:54:26.501Z,81.67
2018-04-30T00:55:26.430Z,82.24
2018-04-30T00:56:26.356Z,82.43
2018-04-30T00:57:26.284Z,82.72
2018-04-30T00:58:26.203Z,82.91
2018-04-30T00:59:26.141Z,82.63
2018-04-30T01:00:26.061Z,82.63
2018-04-30T01:01:25.986Z,81.20
2018-04-30T01:02:25.903Z,77.47
2018-04-30T01:03:25.927Z,76.62
2018-04-30T01:04:25.761Z,76.23
2018-04-30T01:05:25.688Z,75.53
2018-04-30T01:06:25.609Z,76.77
2018-04-30T01:07:25.555Z,77.62
2018-04-30T01:08:25.457Z,80.92
2018-04-30T01:09:26.390Z,84.36
2018-04-30T01:10:25.308Z,84.74
2018-04-30T01:11:25.242Z,84.26
2018-04-30T01:12:25.162Z,84.11
2018-04-30T01:13:25.093Z,81.82
2018-04-30T01:14:25.010Z,82.01
2018-04-30T01:15:24.942Z,81.92
2018-04-30T01:16:24.860Z,81.82
2018-04-30T01:17:24.792Z,80.96
2018-04-30T01:18:24.707Z,79.15
2018-04-30T01:19:24.649Z,78.10
2018-04-30T01:20:24.563Z,77.62
2018-04-30T01:21:24.494Z,77.34
2018-04-30T01:22:24.415Z,77.91
2018-04-30T01:23:24.348Z,76.96
2018-04-30T01:24:24.265Z,76.67
2018-04-30T01:25:24.193Z,78.73
2018-04-30T01:26:24.112Z,80.16
2018-04-30T01:27:24.047Z,82.26
2018-04-30T01:28:23.968Z,82.73
2018-04-30T01:29:23.890Z,83.12
2018-04-30T01:30:23.815Z,83.88
2018-04-30T01:31:23.755Z,84.16
2018-04-30T01:32:23.669Z,84.92
2018-04-30T01:33:24.597Z,85.02
2018-04-30T01:34:23.517Z,85.60
2018-04-30T01:35:23.446Z,85.73
2018-04-30T01:36:23.366Z,84.11
2018-04-30T01:37:23.292Z,82.20
2018-04-30T01:38:23.215Z,80.87
2018-04-30T01:39:23.155Z,79.02
2018-04-30T01:40:23.068Z,79.88
2018-04-30T01:41:23.002Z,81.12
2018-04-30T01:42:22.914Z,80.73
2018-04-30T01:43:22.853Z,80.16
2018-04-30T01:44:22.771Z,79.72
2018-04-30T01:45:22.696Z,79.25
2018-04-30T01:46:22.619Z,78.67
2018-04-30T01:47:22.548Z,79.57
2018-04-30T01:48:22.465Z,80.24
2018-04-30T01:49:22.403Z,80.15
2018-04-30T01:50:22.317Z,80.15
2018-04-30T01:51:22.250Z,79.19
2018-04-30T01:52:22.168Z,78.91
2018-04-30T01:53:22.093Z,78.52
2018-04-30T01:54:22.017Z,78.62
2018-04-30T01:55:21.949Z,77.23
2018-04-30T01:56:21.868Z,75.51
2018-04-30T01:57:21.802Z,75.03
2018-04-30T01:58:21.722Z,75.42
2018-04-30T01:59:21.650Z,75.79
2018-04-30T02:00:21.567Z,75.79
2018-04-30T02:01:21.499Z,76.08
2018-04-30T02:02:21.418Z,75.93
2018-04-30T02:03:21.354Z,75.07
2018-04-30T02:04:21.269Z,73.44
2018-04-30T02:05:21.200Z,72.78
2018-04-30T02:06:21.120Z,71.76
2018-04-30T02:07:21.052Z,72.62
2018-04-30T02:08:20.971Z,71.61
2018-04-30T02:09:20.901Z,71.99
2018-04-30T02:10:20.823Z,71.70
2018-04-30T02:11:20.755Z,71.70
2018-04-30T02:12:20.673Z,72.94
2018-04-30T02:13:20.604Z,74.19
2018-04-30T02:14:20.523Z,74.13
2018-04-30T02:15:20.456Z,75.27
2018-04-30T02:16:20.375Z,74.51
2018-04-30T02:17:20.306Z,74.61
2018-04-30T02:18:20.226Z,74.41
2018-04-30T02:19:20.155Z,74.70
2018-04-30T02:20:20.077Z,74.61
2018-04-30T02:21:20.010Z,75.47
2018-04-30T02:22:19.928Z,75.27
2018-04-30T02:23:19.864Z,76.62
2018-04-30T02:24:19.778Z,77.19
2018-04-30T02:25:19.707Z,78.05
2018-04-30T02:26:19.629Z,78.91
2018-04-30T02:27:19.562Z,79.10
2018-04-30T02:28:19.481Z,79.77
2018-04-30T02:29:19.412Z,79.77
2018-04-30T02:30:19.331Z,79.29
2018-04-30T02:31:19.265Z,79.58
2018-04-30T02:32:19.186Z,79.77
2018-04-30T02:33:19.116Z,79.77
2018-04-30T02:34:19.042Z,79.91
2018-04-30T02:35:18.979Z,79.43
2018-04-30T02:36:18.891Z,79.77
2018-04-30T02:37:18.825Z,79.58
2018-04-30T02:38:18.739Z,79.68
2018-04-30T02:39:18.672Z,79.10
2018-04-30T02:40:18.594Z,79.52
2018-04-30T02:41:18.526Z,79.81
2018-04-30T02:42:18.443Z,79.43
2018-04-30T02:43:18.374Z,79.49
2018-04-30T02:44:18.299Z,79.77
2018-04-30T02:45:18.230Z,79.43
2018-04-30T02:46:18.149Z,79.43
2018-04-30T02:47:18.082Z,79.10
2018-04-30T02:48:17.998Z,79.68
2018-04-30T02:49:17.937Z,79.39
2018-04-30T02:50:17.853Z,79.49
2018-04-30T02:51:17.785Z,78.91
2018-04-30T02:52:17.706Z,79.39
2018-04-30T02:53:17.637Z,79.20
2018-04-30T02:54:17.558Z,79.20
2018-04-30T02:55:17.492Z,76.52
2018-04-30T02:56:17.409Z,75.56
2018-04-30T02:57:17.345Z,74.22
2018-04-30T02:58:17.261Z,74.70
2018-04-30T02:59:17.197Z,74.61
2018-04-30T03:00:17.112Z,74.99
2018-04-30T03:01:17.049Z,73.55
2018-04-30T03:02:16.971Z,73.17
2018-04-30T03:03:16.901Z,73.46
2018-04-30T03:04:16.819Z,72.98
2018-04-30T03:05:16.754Z,72.98
2018-04-30T03:06:16.675Z,73.27
2018-04-30T03:07:16.605Z,73.17
2018-04-30T03:08:16.527Z,72.79
2018-04-30T03:09:16.457Z,73.36
2018-04-30T03:10:16.376Z,72.79
2018-04-30T03:11:16.314Z,73.08
2018-04-30T03:12:16.233Z,72.69
2018-04-30T03:13:16.159Z,71.83
2018-04-30T03:14:16.084Z,72.12
2018-04-30T03:15:16.014Z,71.73
2018-04-30T03:16:15.931Z,71.45
2018-04-30T03:17:15.869Z,71.64
2018-04-30T03:18:15.790Z,70.87
2018-04-30T03:19:15.719Z,71.16
2018-04-30T03:20:15.642Z,70.50
2018-04-30T03:21:15.571Z,70.59
2018-04-30T03:22:15.491Z,70.97
2018-04-30T03:23:15.426Z,71.36
2018-04-30T03:24:15.346Z,70.59
2018-04-30T03:25:15.278Z,70.50
2018-04-30T03:26:15.196Z,69.06
2018-04-30T03:27:15.219Z,69.70
2018-04-30T03:28:15.053Z,69.89
2018-04-30T03:29:14.985Z,69.60
2018-04-30T03:30:14.900Z,68.74
2018-04-30T03:31:14.837Z,69.21
2018-04-30T03:32:14.756Z,68.84
2018-04-30T03:33:14.691Z,68.07
2018-04-30T03:34:14.605Z,68.26
2018-04-30T03:35:14.540Z,68.45
2018-04-30T03:36:14.458Z,68.74
2018-04-30T03:38:47.999Z,67.97
2018-04-30T03:39:47.905Z,68.20
2018-04-30T03:40:47.829Z,68.35
2018-04-30T03:41:47.756Z,67.97
2018-04-30T03:42:47.685Z,67.78
2018-04-30T03:43:47.605Z,68.26
2018-04-30T03:44:47.538Z,68.45
2018-04-30T03:45:47.457Z,68.45
2018-04-30T03:46:47.391Z,68.45
2018-04-30T03:47:47.312Z,68.26
2018-04-30T03:48:47.244Z,67.97
2018-04-30T03:49:47.203Z,68.07
2018-04-30T03:50:47.102Z,67.97
2018-04-30T03:51:47.016Z,68.26
2018-04-30T03:52:46.954Z,69.41
2018-04-30T03:53:46.870Z,69.21
2018-04-30T03:54:53.492Z,69.12
2018-04-30T03:55:46.726Z,68.93
2018-04-30T03:56:46.673Z,69.02
2018-04-30T03:57:46.573Z,68.35
2018-04-30T03:58:46.507Z,68.64
2018-04-30T03:59:46.426Z,69.02
2018-04-30T04:00:46.393Z,68.93
2018-04-30T04:01:46.277Z,68.93
2018-04-30T04:02:46.301Z,68.35
2018-04-30T04:03:46.127Z,68.93
2018-04-30T04:04:46.114Z,68.16
2018-04-30T04:05:45.982Z,68.64
2018-04-30T04:06:46.023Z,68.35
2018-04-30T04:07:45.834Z,67.59
2018-04-30T04:08:45.830Z,68.07
2018-04-30T04:09:45.691Z,67.88
2018-04-30T04:10:45.642Z,67.97
2018-04-30T04:11:45.540Z,68.07
2018-04-30T04:12:45.587Z,68.16
2018-04-30T04:13:45.397Z,67.97
2018-04-30T04:14:45.363Z,68.64
2018-04-30T04:15:45.246Z,68.93
2018-04-30T04:16:45.271Z,68.84
2018-04-30T04:17:45.096Z,68.16
2018-04-30T04:18:45.079Z,68.26
2018-04-30T04:19:44.947Z,68.35
2018-04-30T04:20:44.988Z,67.97
2018-04-30T04:21:44.801Z,67.88
2018-04-30T04:22:44.799Z,67.78
2018-04-30T04:23:44.656Z,68.45
2018-04-30T04:24:44.607Z,69.21
2018-04-30T04:25:44.507Z,68.93
2018-04-30T04:26:44.523Z,68.93
2018-04-30T04:27:44.356Z,68.64
2018-04-30T04:28:44.326Z,69.21
2018-04-30T04:29:44.207Z,69.12
2018-04-30T04:30:44.236Z,69.21
2018-04-30T04:31:44.062Z,68.74
2018-04-30T04:32:44.004Z,69.31
2018-04-30T04:33:43.914Z,68.93
2018-04-30T04:34:43.950Z,68.93
2018-04-30T04:35:43.770Z,69.02
2018-04-30T04:36:43.760Z,69.12
2018-04-30T04:37:43.616Z,69.12
2018-04-30T04:38:43.550Z,69.02
2018-04-30T04:39:43.470Z,69.21
2018-04-30T04:40:43.484Z,68.74
2018-04-30T04:41:43.397Z,69.21
2018-04-30T04:42:43.292Z,69.02
2018-04-30T04:43:43.420Z,68.93
2018-04-30T04:44:43.098Z,68.35
2018-04-30T04:45:43.109Z,68.74
2018-04-30T04:46:42.951Z,68.26
2018-04-30T04:47:42.887Z,68.26
2018-04-30T04:48:42.803Z,68.35
2018-04-30T04:49:42.826Z,68.45
2018-04-30T04:50:42.656Z,68.26
2018-04-30T04:51:42.634Z,68.07
2018-04-30T04:52:42.509Z,66.73
2018-04-30T04:53:42.548Z,66.73
2018-04-30T04:54:42.358Z,67.21
2018-04-30T04:55:42.358Z,67.49
2018-04-30T04:56:42.211Z,66.92
2018-04-30T04:57:42.148Z,66.63
2018-04-30T04:58:42.063Z,66.92
2018-04-30T04:59:42.074Z,66.83
2018-04-30T05:00:41.915Z,66.73
2018-04-30T05:01:41.847Z,66.25
2018-04-30T05:02:41.769Z,66.16
2018-04-30T05:03:41.791Z,66.44
2018-04-30T05:04:41.623Z,66.44
2018-04-30T05:05:43.649Z,66.83
2018-04-30T05:06:41.470Z,65.87
2018-04-30T05:07:41.508Z,65.87
2018-04-30T05:08:41.323Z,65.77
2018-04-30T05:09:41.319Z,65.77
2018-04-30T05:10:41.177Z,66.25
2018-04-30T05:11:41.887Z,65.68
2018-04-30T05:12:41.028Z,65.20
2018-04-30T05:13:41.041Z,65.77
2018-04-30T05:14:40.880Z,65.20
2018-04-30T05:15:40.850Z,65.20
2018-04-30T05:16:40.731Z,64.15
2018-04-30T05:17:40.760Z,63.67
2018-04-30T05:18:40.584Z,63.76
2018-04-30T05:19:40.574Z,63.10
2018-04-30T05:20:40.432Z,62.33
2018-04-30T05:21:40.479Z,62.52
2018-04-30T05:22:40.289Z,63.10
2018-04-30T05:23:40.293Z,63.86
2018-04-30T05:24:40.140Z,64.05
2018-04-30T05:25:40.093Z,63.67
2018-04-30T05:26:39.993Z,63.00
2018-04-30T05:27:40.006Z,63.00
2018-04-30T05:28:39.842Z,64.25
2018-04-30T05:29:39.816Z,64.43
2018-04-30T05:30:39.695Z,63.86
2018-04-30T05:31:39.723Z,63.19
2018-04-30T05:32:39.549Z,62.33
2018-04-30T05:33:39.533Z,62.14
2018-04-30T05:34:39.400Z,61.66
2018-04-30T05:35:39.345Z,62.14
2018-04-30T05:36:39.251Z,62.43
2018-04-30T05:37:39.254Z,62.33
2018-04-30T05:38:39.104Z,61.19
2018-04-30T05:39:39.059Z,60.99
2018-04-30T05:40:38.957Z,61.66
2018-04-30T05:41:38.972Z,62.14
2018-04-30T05:42:38.808Z,62.62
2018-04-30T05:43:38.741Z,62.71
2018-04-30T05:44:38.657Z,62.52
2018-04-30T05:45:38.691Z,63.57
2018-04-30T05:46:38.512Z,64.31
2018-04-30T05:47:38.446Z,64.59
2018-04-30T05:48:38.361Z,64.40
2018-04-30T05:49:38.310Z,65.26
2018-04-30T05:50:38.221Z,65.26
2018-04-30T05:51:38.218Z,66.22
2018-04-30T05:52:38.071Z,65.45
2018-04-30T05:53:38.028Z,65.93
2018-04-30T05:54:37.919Z,65.84
2018-04-30T05:55:37.939Z,65.64
2018-04-30T05:56:37.780Z,65.64
2018-04-30T05:57:37.744Z,65.45
2018-04-30T05:58:37.622Z,66.22
2018-04-30T05:59:37.654Z,66.22
2018-04-30T06:00:37.533Z,66.31
2018-04-30T06:01:37.469Z,66.03
2018-04-30T06:02:37.325Z,66.03
2018-04-30T06:03:37.276Z,65.26
2018-04-30T06:04:37.174Z,65.07
2018-04-30T06:05:37.186Z,64.88
2018-04-30T06:06:37.029Z,63.93
2018-04-30T06:07:36.998Z,64.40
2018-04-30T06:08:36.882Z,64.22
2018-04-30T06:09:36.905Z,65.26
2018-04-30T06:10:36.731Z,63.54
2018-04-30T06:11:36.715Z,63.35
2018-04-30T06:12:36.581Z,62.87
2018-04-30T06:13:36.522Z,62.97
2018-04-30T06:14:36.432Z,63.16
2018-04-30T06:15:36.433Z,62.78
2018-04-30T06:16:36.284Z,62.40
2018-04-30T06:17:36.266Z,62.49
2018-04-30T06:18:36.136Z,62.87
2018-04-30T06:19:36.150Z,62.21
2018-04-30T06:20:35.987Z,62.55
2018-04-30T06:21:35.959Z,62.75
2018-04-30T06:22:35.835Z,63.70
2018-04-30T06:23:35.871Z,63.60
2018-04-30T06:24:35.688Z,63.70
2018-04-30T06:25:35.680Z,62.94
2018-04-30T06:26:35.608Z,62.55
2018-04-30T06:27:35.496Z,63.03
2018-04-30T06:28:35.389Z,63.32
2018-04-30T06:29:35.399Z,63.03
2018-04-30T06:30:35.239Z,63.13
2018-04-30T06:31:35.204Z,64.28
2018-04-30T06:32:35.091Z,63.80
2018-04-30T06:33:35.120Z,64.94
2018-04-30T06:34:34.942Z,64.56
2018-04-30T06:35:34.928Z,63.23
2018-04-30T06:36:34.792Z,63.89
2018-04-30T06:37:34.735Z,63.80
2018-04-30T06:38:34.645Z,64.37
2018-04-30T06:39:34.653Z,65.23
2018-04-30T06:40:34.492Z,65.77
2018-04-30T06:41:34.426Z,65.52
2018-04-30T06:42:34.344Z,65.67
2018-04-30T06:43:34.364Z,66.06
2018-04-30T06:44:34.192Z,66.35
2018-04-30T06:45:34.178Z,66.72
2018-04-30T06:46:34.054Z,68.26
2018-04-30T06:47:34.111Z,68.63
2018-04-30T06:48:33.903Z,70.07
2018-04-30T06:49:33.894Z,70.73
2018-04-30T06:50:33.762Z,70.54
2018-04-30T06:51:33.704Z,71.41
2018-04-30T06:52:33.597Z,72.07
2018-04-30T06:53:33.641Z,71.50
2018-04-30T06:54:33.453Z,71.69
2018-04-30T06:55:33.421Z,71.88
2018-04-30T06:56:33.302Z,73.03
2018-04-30T06:57:33.339Z,74.55
2018-04-30T06:58:33.146Z,73.94
2018-04-30T06:59:33.146Z,74.93
2018-04-30T07:00:32.998Z,74.99
2018-04-30T07:01:32.953Z,75.66
2018-04-30T07:02:32.850Z,75.57
2018-04-30T07:03:32.862Z,76.04
2018-04-30T07:04:32.696Z,77.09
2018-04-30T07:05:32.672Z,77.67
2018-04-30T07:06:32.553Z,78.52
2018-04-30T07:07:32.582Z,79.10
2018-04-30T07:08:32.400Z,78.91
2018-04-30T07:09:32.505Z,78.72
2018-04-30T07:10:32.248Z,80.24
2018-04-30T07:11:32.199Z,79.67
2018-04-30T07:12:32.100Z,79.00
2018-04-30T07:13:32.108Z,80.58
2018-04-30T07:14:31.950Z,80.77
2018-04-30T07:15:31.918Z,81.63
2018-04-30T07:16:31.799Z,82.01
2018-04-30T07:17:31.829Z,82.30
2018-04-30T07:18:31.648Z,82.49
2018-04-30T07:19:31.638Z,81.54
2018-04-30T07:20:31.499Z,81.35
2018-04-30T07:21:31.447Z,81.63
2018-04-30T07:22:31.351Z,82.40
2018-04-30T07:23:31.357Z,82.40
2018-04-30T07:24:31.198Z,82.01
2018-04-30T07:25:31.166Z,82.20
2018-04-30T07:26:31.048Z,82.30
2018-04-30T07:27:31.137Z,82.20
2018-04-30T07:28:30.899Z,82.20
2018-04-30T07:29:30.886Z,82.68
2018-04-30T07:30:30.747Z,82.97
2018-04-30T07:31:30.692Z,83.44
2018-04-30T07:32:30.598Z,84.49
2018-04-30T07:33:30.605Z,84.49
2018-04-30T07:34:30.448Z,84.20
2018-04-30T07:35:30.413Z,84.11
2018-04-30T07:36:30.293Z,84.59
2018-04-30T07:37:30.321Z,84.59
2018-04-30T07:38:30.145Z,85.06
2018-04-30T07:39:30.130Z,85.06
2018-04-30T07:40:30.008Z,83.54
2018-04-30T07:41:29.940Z,83.06
2018-04-30T07:42:29.850Z,82.97
2018-04-30T07:43:29.846Z,82.78
2018-04-30T07:44:29.696Z,82.87
2018-04-30T07:45:29.665Z,83.64
2018-04-30T07:46:29.550Z,83.73
2018-04-30T07:47:29.570Z,85.41
2018-04-30T07:48:29.399Z,85.83
2018-04-30T07:49:29.343Z,86.59
2018-04-30T07:50:29.248Z,86.98
2018-04-30T07:51:29.297Z,88.07
2018-04-30T07:52:29.097Z,88.64
2018-04-30T07:53:29.097Z,89.40
2018-04-30T07:54:28.948Z,90.36
2018-04-30T07:55:28.908Z,90.55
2018-04-30T07:56:28.796Z,90.26
2018-04-30T07:57:28.820Z,89.98
2018-04-30T07:58:28.645Z,90.17
2018-04-30T07:59:28.630Z,90.64
2018-04-30T08:00:28.496Z,91.69
2018-04-30T08:01:28.435Z,90.93
2018-04-30T08:02:28.345Z,90.26
2018-04-30T08:03:28.347Z,89.98
2018-04-30T08:04:28.194Z,90.93
2018-04-30T08:05:28.162Z,91.98
2018-04-30T08:06:28.043Z,90.93
2018-04-30T08:07:28.066Z,90.36
2018-04-30T08:08:27.894Z,90.64
2018-04-30T08:09:27.877Z,90.36
2018-04-30T08:10:27.745Z,90.36
2018-04-30T08:11:27.787Z,91.03
2018-04-30T08:12:27.593Z,91.79
2018-04-30T08:13:27.597Z,91.60
2018-04-30T08:14:27.441Z,92.27
2018-04-30T08:15:27.404Z,93.03
2018-04-30T08:16:27.291Z,92.65
2018-04-30T08:17:27.315Z,91.50
2018-04-30T08:18:27.146Z,90.74
2018-04-30T08:19:27.125Z,90.93
2018-04-30T08:20:26.997Z,90.64
2018-04-30T08:21:27.050Z,91.03
2018-04-30T08:22:26.842Z,90.84
2018-04-30T08:23:26.840Z,90.36
2018-04-30T08:24:26.690Z,91.50
2018-04-30T08:25:26.651Z,91.03
2018-04-30T08:26:26.545Z,90.17
2018-04-30T08:27:26.565Z,90.31
2018-04-30T08:28:26.394Z,90.50
2018-04-30T08:29:26.317Z,91.83
2018-04-30T08:30:26.242Z,90.41
2018-04-30T08:31:27.173Z,89.12
2018-04-30T08:32:26.092Z,88.45
2018-04-30T08:33:26.026Z,88.40
2018-04-30T08:34:25.948Z,88.68
2018-04-30T08:35:25.879Z,88.01
2018-04-30T08:36:25.792Z,85.53
2018-04-30T08:37:25.726Z,84.00
2018-04-30T08:38:25.643Z,83.86
2018-04-30T08:39:25.579Z,83.53
2018-04-30T08:40:25.494Z,83.95
2018-04-30T08:41:25.426Z,83.76
2018-04-30T08:42:25.342Z,81.79
2018-04-30T08:43:25.275Z,81.99
2018-04-30T08:44:25.194Z,82.37
2018-04-30T08:45:25.122Z,81.09
2018-04-30T08:46:25.050Z,82.52
2018-04-30T08:47:24.977Z,83.57
2018-04-30T08:48:24.895Z,83.95
2018-04-30T08:49:24.825Z,84.72
2018-04-30T08:50:24.759Z,84.91
2018-04-30T08:51:24.678Z,83.09
2018-04-30T08:52:24.599Z,84.14
2018-04-30T08:53:24.529Z,84.62
2018-04-30T08:54:24.453Z,84.05
2018-04-30T08:55:24.384Z,83.95
2018-04-30T08:56:24.301Z,85.05
2018-04-30T08:57:24.235Z,83.23
2018-04-30T08:58:24.154Z,79.79
2018-04-30T08:59:24.086Z,80.27
2018-04-30T09:00:24.098Z,81.07
2018-04-30T09:01:23.939Z,82.60
2018-04-30T09:02:23.864Z,83.60
2018-04-30T09:03:23.793Z,81.59
2018-04-30T09:04:23.704Z,79.58
2018-04-30T09:05:23.643Z,80.48
2018-04-30T09:06:23.563Z,78.47
2018-04-30T09:07:23.492Z,76.27
2018-04-30T09:08:23.423Z,79.47
2018-04-30T09:09:24.345Z,75.12
2018-04-30T09:10:23.267Z,75.12
2018-04-30T09:11:23.200Z,76.27
2018-04-30T09:12:23.125Z,78.70
2018-04-30T09:13:23.055Z,77.08
2018-04-30T09:14:22.976Z,77.26
2018-04-30T09:15:22.904Z,74.77
2018-04-30T09:16:22.827Z,74.58
2018-04-30T09:17:22.762Z,74.11
2018-04-30T09:18:22.678Z,73.15
2018-04-30T09:19:22.614Z,75.73
2018-04-30T09:20:22.533Z,73.34
2018-04-30T09:21:22.467Z,73.24
2018-04-30T09:22:22.390Z,74.49
2018-04-30T09:23:22.323Z,73.05
2018-04-30T09:24:22.247Z,74.15
2018-04-30T09:25:22.179Z,76.25
2018-04-30T09:26:22.100Z,75.20
2018-04-30T09:27:22.032Z,74.05
2018-04-30T09:28:21.951Z,73.13
2018-04-30T09:29:21.889Z,71.56
2018-04-30T09:30:21.808Z,69.83
2018-04-30T09:31:21.742Z,70.70
2018-04-30T09:32:21.663Z,70.03
2018-04-30T09:33:21.595Z,69.35
2018-04-30T09:34:21.518Z,70.31
2018-04-30T09:35:21.456Z,68.97
2018-04-30T09:36:21.373Z,68.81
2018-04-30T09:37:21.306Z,67.09
2018-04-30T09:38:21.227Z,67.18
2018-04-30T09:39:21.161Z,65.97
2018-04-30T09:40:21.089Z,64.43
2018-04-30T09:41:21.019Z,66.55
2018-04-30T09:42:20.939Z,66.26
2018-04-30T09:43:20.878Z,64.53
2018-04-30T09:44:20.794Z,65.49
2018-04-30T09:45:20.734Z,66.06
2018-04-30T09:46:20.650Z,64.92
2018-04-30T09:47:20.588Z,63.99
2018-04-30T09:48:20.509Z,62.07
2018-04-30T09:49:20.469Z,65.01
2018-04-30T09:50:20.363Z,66.93
2018-04-30T09:51:20.297Z,66.58
2018-04-30T09:52:20.223Z,63.32
2018-04-30T09:53:20.155Z,63.70
2018-04-30T09:54:20.076Z,66.19
2018-04-30T09:55:20.013Z,65.08
2018-04-30T09:56:19.934Z,65.46
2018-04-30T09:57:19.868Z,64.69
2018-04-30T09:58:19.792Z,64.12
2018-04-30T09:59:19.730Z,63.35
2018-04-30T10:00:19.654Z,62.71
2018-04-30T10:01:20.589Z,62.61
2018-04-30T10:02:19.511Z,60.85
2018-04-30T10:03:19.441Z,61.24
2018-04-30T10:04:19.384Z,62.65
2018-04-30T10:05:19.302Z,63.79
2018-04-30T10:06:19.222Z,62.77
2018-04-30T10:07:19.166Z,60.38
2018-04-30T10:08:19.078Z,59.80
2018-04-30T10:09:19.016Z,64.85
2018-04-30T10:10:18.942Z,62.96
2018-04-30T10:11:18.883Z,59.80
2018-04-30T10:12:18.794Z,59.80
2018-04-30T10:13:18.731Z,60.18
2018-04-30T10:14:18.653Z,61.91
2018-04-30T10:15:18.590Z,60.18
2018-04-30T10:16:18.510Z,57.88
2018-04-30T10:17:18.453Z,57.50
2018-04-30T10:18:18.369Z,57.59
2018-04-30T10:19:18.306Z,60.28
2018-04-30T10:20:18.228Z,59.32
2018-04-30T10:21:18.212Z,57.78
2018-04-30T10:22:18.085Z,60.40
2018-04-30T10:23:18.090Z,61.08
2018-04-30T10:24:17.945Z,59.83
2018-04-30T10:25:17.932Z,58.48
2018-04-30T10:26:17.810Z,58.10
2018-04-30T10:27:17.842Z,58.00
2018-04-30T10:28:17.664Z,58.20
2018-04-30T10:29:17.600Z,58.32
2018-04-30T10:30:17.528Z,56.68
2018-04-30T10:31:17.560Z,58.10
2018-04-30T10:32:17.378Z,56.76
2018-04-30T10:33:17.370Z,54.55
2018-04-30T10:34:17.234Z,54.25
2018-04-30T10:35:17.177Z,55.63
2018-04-30T10:36:17.100Z,56.88
2018-04-30T10:37:17.091Z,56.01
2018-04-30T10:38:16.956Z,57.17
2018-04-30T10:39:17.007Z,57.10
2018-04-30T10:40:16.810Z,56.01
2018-04-30T10:41:16.810Z,56.49
2018-04-30T10:42:16.678Z,56.81
2018-04-30T10:43:16.619Z,56.62
2018-04-30T10:44:16.538Z,57.39
2018-04-30T10:45:16.531Z,56.40
2018-04-30T10:46:16.392Z,54.89
2018-04-30T10:47:16.338Z,54.99
2018-04-30T10:48:16.251Z,54.41
2018-04-30T10:49:16.248Z,53.25
2018-04-30T10:50:16.110Z,56.07
2018-04-30T10:51:16.055Z,58.18
2018-04-30T10:52:15.965Z,56.43
2018-04-30T10:53:15.904Z,54.24
2018-04-30T10:54:15.829Z,51.84
2018-04-30T10:55:15.775Z,53.09
2018-04-30T10:56:15.686Z,54.91
2018-04-30T10:57:15.684Z,56.65
2018-04-30T10:58:15.547Z,56.74
2018-04-30T10:59:15.498Z,53.96
2018-04-30T11:00:15.404Z,52.54
2018-04-30T11:01:15.344Z,50.71
2018-04-30T11:02:15.267Z,47.61
2018-04-30T11:03:15.211Z,48.85
2018-04-30T11:04:15.127Z,49.43
2018-04-30T11:05:15.125Z,50.10
2018-04-30T11:06:14.987Z,50.10
2018-04-30T11:07:14.934Z,50.30
2018-04-30T11:08:14.848Z,48.38
2018-04-30T11:09:14.846Z,49.74
2018-04-30T11:10:14.706Z,50.23
2018-04-30T11:11:14.658Z,50.32
2018-04-30T11:12:14.566Z,50.42
2018-04-30T11:13:14.569Z,50.61
2018-04-30T11:14:14.426Z,49.94
2018-04-30T11:15:14.375Z,49.46
2018-04-30T11:16:14.289Z,51.76
2018-04-30T11:17:14.286Z,50.04
2018-04-30T11:18:14.148Z,48.97
2018-04-30T11:19:14.090Z,50.63
2018-04-30T11:20:14.009Z,49.65
2018-04-30T11:21:13.947Z,50.23
2018-04-30T11:22:13.870Z,49.84
2018-04-30T11:23:13.917Z,50.13
2018-04-30T11:24:13.731Z,49.17
2018-04-30T11:25:13.720Z,48.81
2018-04-30T11:26:13.592Z,47.17
2018-04-30T11:27:13.528Z,46.31
2018-04-30T11:28:13.454Z,46.31
2018-04-30T11:29:13.389Z,47.19
2018-04-30T11:30:13.316Z,45.65
2018-04-30T11:31:13.355Z,44.89
2018-04-30T11:32:13.175Z,46.23
2018-04-30T11:33:13.119Z,45.29
2018-04-30T11:34:13.091Z,45.48
2018-04-30T11:35:13.075Z,47.80
2018-04-30T11:36:12.900Z,43.07
2018-04-30T11:37:12.882Z,44.62
2018-04-30T11:38:12.767Z,41.89
2018-04-30T11:39:12.699Z,41.20
2018-04-30T11:40:12.622Z,41.47
2018-04-30T11:41:12.565Z,42.24
2018-04-30T11:42:12.483Z,42.99
2018-04-30T11:43:12.513Z,44.62
2018-04-30T11:44:12.347Z,45.37
2018-04-30T11:45:12.286Z,46.23
2018-04-30T11:46:12.207Z,46.72
2018-04-30T11:47:12.312Z,45.28
2018-04-30T11:48:13.038Z,44.22
2018-04-30T11:49:12.043Z,44.99
2018-04-30T11:50:11.932Z,45.08
2018-04-30T11:51:11.952Z,43.16
2018-04-30T11:52:11.793Z,42.99
2018-04-30T11:53:11.765Z,44.43
2018-04-30T11:54:11.655Z,44.53
2018-04-30T11:55:11.669Z,44.53
2018-04-30T11:56:11.515Z,42.32
2018-04-30T11:57:11.484Z,42.70
2018-04-30T11:58:11.385Z,42.97
2018-04-30T11:59:11.393Z,42.70
2018-04-30T12:00:11.237Z,44.34
2018-04-30T12:01:11.201Z,44.72
2018-04-30T12:02:11.099Z,44.91
2018-04-30T12:03:11.107Z,44.34
2018-04-30T12:04:10.957Z,44.05
2018-04-30T12:05:10.917Z,43.57
2018-04-30T12:06:10.820Z,44.91
2018-04-30T12:07:10.830Z,44.24
2018-04-30T12:08:10.681Z,45.20
2018-04-30T12:09:10.643Z,45.68
2018-04-30T12:10:10.542Z,44.62
2018-04-30T12:11:10.479Z,42.60
2018-04-30T12:12:10.399Z,42.70
2018-04-30T12:13:10.345Z,43.93
2018-04-30T12:14:10.262Z,43.18
2018-04-30T12:15:10.219Z,43.45
2018-04-30T12:16:10.121Z,44.70
2018-04-30T12:17:10.062Z,44.70
2018-04-30T12:18:09.983Z,45.28
2018-04-30T12:19:09.990Z,46.64
2018-04-30T12:20:09.846Z,46.06
2018-04-30T12:21:09.780Z,44.91
2018-04-30T12:22:09.781Z,45.49
2018-04-30T12:23:09.709Z,45.59
2018-04-30T12:24:09.567Z,43.95
2018-04-30T12:25:09.512Z,42.63
2018-04-30T12:26:09.425Z,43.20
2018-04-30T12:27:09.429Z,44.55
2018-04-30T12:28:09.289Z,45.61
2018-04-30T12:29:09.235Z,45.13
2018-04-30T12:30:09.148Z,44.45
2018-04-30T12:31:09.147Z,43.41
2018-04-30T12:32:09.007Z,44.09
2018-04-30T12:33:08.954Z,46.21
2018-04-30T12:34:08.875Z,47.39
2018-04-30T12:35:08.868Z,47.49
2018-04-30T12:36:08.804Z,47.31
2018-04-30T12:37:08.673Z,45.00
2018-04-30T12:38:08.593Z,42.30
2018-04-30T12:39:08.585Z,42.88
2018-04-30T12:40:08.452Z,43.27
2018-04-30T12:41:08.392Z,41.24
2018-04-30T12:42:08.314Z,40.37
2018-04-30T12:43:08.305Z,40.57
2018-04-30T12:44:08.176Z,41.63
2018-04-30T12:45:09.142Z,40.47
2018-04-30T12:46:08.048Z,43.38
2018-04-30T12:47:08.026Z,42.97
2018-04-30T12:48:07.905Z,39.12
2018-04-30T12:49:07.840Z,39.70
2018-04-30T12:50:07.764Z,40.07
2018-04-30T12:51:07.743Z,39.68
2018-04-30T12:52:07.627Z,42.86
2018-04-30T12:53:07.655Z,43.34